Time;durP1;ratioP1;P1;durP2;ratioP2;P2;SDS_P1;SDS_P2;PMS_P1;PMS_P2;Temp;Humidity;BMP_temperature;BMP_pressure;BME280_temperature;BME280_humidity;BME280_pressure;Samples;Min_cycle;Max_cycle;Signal;HPM_P1;HPM_P2
2023/10/08 00:01:44;;;;;;;1.27;0.20;;;16.20;99.90;;;;;;5051798;28;20032;-57
2023/10/08 00:04:18;;;;;;;1.27;0.28;;;16.00;99.90;;;;;;5055149;28;20411;-58
2023/10/08 00:06:45;;;;;;;0.77;0.30;;;15.80;99.90;;;;;;5054033;28;20048;-56
2023/10/08 00:09:11;;;;;;;1.08;0.28;;;15.60;99.90;;;;;;5056972;28;20040;-56
2023/10/08 00:11:39;;;;;;;0.30;0.20;;;15.50;99.90;;;;;;5055634;28;20029;-57
2023/10/08 00:14:10;;;;;;;0.52;0.20;;;15.40;99.90;;;;;;5057974;28;20404;-56
2023/10/08 00:16:39;;;;;;;1.17;0.20;;;15.30;99.90;;;;;;5051666;28;20040;-56
2023/10/08 00:19:08;;;;;;;2.10;0.17;;;15.20;99.90;;;;;;5057017;28;20502;-56
2023/10/08 00:21:37;;;;;;;1.77;0.10;;;15.10;99.90;;;;;;5058398;28;20037;-55
2023/10/08 00:24:06;;;;;;;0.63;0.10;;;15.00;99.90;;;;;;5055980;28;20037;-58
2023/10/08 00:26:32;;;;;;;1.17;0.10;;;15.00;99.90;;;;;;5055358;28;20500;-56
2023/10/08 00:29:00;;;;;;;2.75;0.10;;;14.90;99.90;;;;;;5050805;28;20094;-56
2023/10/08 00:31:38;;;;;;;2.53;0.15;;;14.90;99.90;;;;;;5052630;28;20041;-58
2023/10/08 00:34:13;;;;;;;0.73;0.10;;;14.80;99.90;;;;;;5054629;28;20047;-57
2023/10/08 00:36:41;;;;;;;1.17;0.10;;;14.80;99.90;;;;;;5052952;28;20071;-56
2023/10/08 00:39:13;;;;;;;0.17;0.10;;;14.70;99.90;;;;;;5050187;28;20064;-57
2023/10/08 00:41:45;;;;;;;0.70;0.30;;;14.60;99.90;;;;;;5054136;28;20059;-57
2023/10/08 00:44:22;;;;;;;1.15;0.30;;;14.60;99.90;;;;;;5055681;28;20502;-55
2023/10/08 00:46:51;;;;;;;3.33;0.20;;;14.60;99.90;;;;;;5056004;28;20064;-55
2023/10/08 00:51:59;;;;;;;0.77;0.20;;;14.60;99.90;;;;;;5055993;28;20044;-56
2023/10/08 00:54:28;;;;;;;3.75;0.30;;;14.50;99.90;;;;;;5052625;28;20405;-54
2023/10/08 00:56:57;;;;;;;0.40;0.20;;;14.60;99.90;;;;;;5057792;28;20052;-54
2023/10/08 00:59:26;;;;;;;0.55;0.20;;;14.50;99.90;;;;;;5056527;28;20029;-56
2023/10/08 01:01:59;;;;;;;3.38;0.40;;;14.50;99.90;;;;;;5049718;28;20044;-54
2023/10/08 01:04:33;;;;;;;2.50;0.30;;;14.50;99.90;;;;;;5052305;28;20090;-60
2023/10/08 01:07:12;;;;;;;4.53;0.38;;;14.40;99.90;;;;;;5050957;28;20116;-56
2023/10/08 01:09:42;;;;;;;1.83;0.30;;;14.40;99.90;;;;;;5050203;28;20036;-55
2023/10/08 01:12:33;;;;;;;1.05;0.43;;;14.40;99.90;;;;;;5051005;28;20052;-54
2023/10/08 01:15:13;;;;;;;1.35;0.35;;;14.30;99.90;;;;;;5050693;28;20112;-57
2023/10/08 01:17:47;;;;;;;0.47;0.40;;;14.30;99.90;;;;;;5065362;28;20411;-56
2023/10/08 01:20:33;;;;;;;3.20;0.63;;;14.20;99.90;;;;;;5058488;28;20097;-56
2023/10/08 01:23:13;;;;;;;1.67;0.68;;;14.20;99.90;;;;;;5051302;28;20187;-57
2023/10/08 01:25:40;;;;;;;1.88;0.40;;;14.20;99.90;;;;;;5056877;28;20101;-56
2023/10/08 01:28:14;;;;;;;0.70;0.50;;;14.20;99.90;;;;;;5060098;28;20040;-54
2023/10/08 01:30:41;;;;;;;1.27;0.70;;;14.20;99.90;;;;;;5059282;28;20044;-57
2023/10/08 01:33:14;;;;;;;2.20;0.88;;;14.20;99.90;;;;;;5056396;28;20044;-58
2023/10/08 01:35:42;;;;;;;2.97;0.90;;;14.20;99.90;;;;;;5066930;28;20063;-56
2023/10/08 01:38:13;;;;;;;1.23;0.77;;;14.30;99.90;;;;;;5058801;28;20198;-56
2023/10/08 01:40:39;;;;;;;1.80;0.75;;;14.30;99.90;;;;;;5052904;28;20066;-56
2023/10/08 01:43:05;;;;;;;1.17;0.65;;;14.30;99.90;;;;;;5059876;28;20055;-56
2023/10/08 01:45:35;;;;;;;2.42;0.82;;;14.20;99.90;;;;;;5066769;28;20443;-56
2023/10/08 01:48:01;;;;;;;2.25;0.57;;;14.20;99.90;;;;;;5062872;28;20044;-55
2023/10/08 01:50:29;;;;;;;2.13;0.93;;;14.10;99.90;;;;;;5061967;28;20124;-56
2023/10/08 01:52:55;;;;;;;1.45;0.77;;;14.20;99.90;;;;;;5067492;28;20186;-57
2023/10/08 01:55:22;;;;;;;1.45;0.85;;;14.20;99.90;;;;;;5065788;28;20111;-55
2023/10/08 01:57:49;;;;;;;1.20;0.75;;;14.20;99.90;;;;;;5069287;28;20044;-57
2023/10/08 02:00:19;;;;;;;2.83;1.15;;;14.20;99.90;;;;;;5065967;28;20415;-55
2023/10/08 02:02:46;;;;;;;2.65;1.10;;;14.30;99.90;;;;;;5070077;28;20146;-55
2023/10/08 02:05:14;;;;;;;2.88;1.13;;;14.30;99.90;;;;;;5069115;28;20044;-57
2023/10/08 02:07:41;;;;;;;1.60;0.80;;;14.30;99.90;;;;;;5064012;28;20032;-56
2023/10/08 02:10:10;;;;;;;1.20;1.02;;;14.30;99.90;;;;;;5064282;28;20093;-56
2023/10/08 02:12:37;;;;;;;2.20;1.08;;;14.30;99.90;;;;;;5065349;28;20426;-58
2023/10/08 02:15:04;;;;;;;1.05;0.70;;;14.30;99.90;;;;;;5070065;28;20487;-56
2023/10/08 02:17:29;;;;;;;0.98;0.50;;;14.30;99.90;;;;;;5061529;28;20068;-54
2023/10/08 02:19:55;;;;;;;1.25;0.40;;;14.30;99.90;;;;;;5067238;28;20537;-54
2023/10/08 02:22:21;;;;;;;3.15;0.60;;;14.30;99.90;;;;;;5061308;28;20164;-55
2023/10/08 02:24:48;;;;;;;1.58;0.65;;;14.30;99.90;;;;;;5070117;28;20041;-57
2023/10/08 02:27:15;;;;;;;1.02;0.50;;;14.30;99.90;;;;;;5063141;28;20407;-55
2023/10/08 02:29:41;;;;;;;0.85;0.40;;;14.30;99.90;;;;;;5065816;28;20119;-57
2023/10/08 02:32:07;;;;;;;1.73;0.60;;;14.30;99.90;;;;;;5061289;28;20052;-56
2023/10/08 02:34:35;;;;;;;0.77;0.77;;;14.30;99.90;;;;;;5068288;28;20033;-55
2023/10/08 02:37:03;;;;;;;1.05;0.60;;;14.30;99.90;;;;;;5069273;28;20051;-57
2023/10/08 02:39:31;;;;;;;1.55;0.60;;;14.30;99.90;;;;;;5064235;28;20454;-57
2023/10/08 02:41:59;;;;;;;0.95;0.65;;;14.30;99.90;;;;;;5063709;28;20033;-54
2023/10/08 02:44:25;;;;;;;1.00;0.70;;;14.40;99.90;;;;;;5068498;28;20291;-56
2023/10/08 02:46:51;;;;;;;;;;;14.30;99.90;;;;;;5067812;28;20077;-55
2023/10/08 02:49:22;;;;;;;1.20;0.80;;;14.30;99.90;;;;;;5073622;28;19939;-57
2023/10/08 02:51:50;;;;;;;1.23;0.77;;;14.30;99.90;;;;;;5064721;28;20040;-55
2023/10/08 02:54:20;;;;;;;2.78;0.90;;;14.30;99.90;;;;;;5066665;28;20457;-57
2023/10/08 02:56:57;;;;;;;1.25;1.08;;;14.30;99.90;;;;;;5064267;28;20040;-56
2023/10/08 02:59:24;;;;;;;1.30;0.90;;;14.30;99.90;;;;;;5059813;28;20037;-55
2023/10/08 03:01:52;;;;;;;1.65;0.80;;;14.30;99.90;;;;;;5068603;28;20075;-53
2023/10/08 03:04:18;;;;;;;1.58;0.98;;;14.20;99.90;;;;;;5061949;28;20209;-55
2023/10/08 03:06:52;;;;;;;2.40;1.13;;;14.30;99.90;;;;;;5068848;28;20078;-53
2023/10/08 03:09:23;;;;;;;1.38;1.25;;;14.30;99.90;;;;;;5060996;28;20044;-54
2023/10/08 03:11:49;;;;;;;2.15;0.80;;;14.30;99.90;;;;;;5062749;28;20041;-57
2023/10/08 03:14:22;;;;;;;1.65;1.08;;;14.30;99.90;;;;;;5061312;28;20421;-53
2023/10/08 03:16:53;;;;;;;3.67;1.05;;;14.20;99.90;;;;;;5069630;28;20045;-56
2023/10/08 03:19:21;;;;;;;2.05;1.30;;;14.30;99.90;;;;;;5064725;28;20047;-58
2023/10/08 03:21:56;;;;;;;1.45;1.35;;;14.20;99.90;;;;;;5066232;28;20388;-55
2023/10/08 03:27:12;;;;;;;1.50;1.38;;;14.30;99.90;;;;;;5063587;28;20567;-55
2023/10/08 03:29:41;;;;;;;2.45;1.30;;;14.30;99.90;;;;;;5064602;28;20380;-56
2023/10/08 03:32:18;;;;;;;4.05;2.30;;;14.30;99.90;;;;;;5069792;28;20083;-53
2023/10/08 03:34:46;;;;;;;2.08;1.70;;;14.30;99.90;;;;;;5066070;28;20066;-55
2023/10/08 03:37:19;;;;;;;2.85;1.88;;;14.20;99.90;;;;;;5060684;28;20037;-55
2023/10/08 03:39:51;;;;;;;2.40;1.85;;;14.20;99.90;;;;;;5063514;28;20087;-56
2023/10/08 03:42:22;;;;;;;4.38;1.98;;;14.10;99.90;;;;;;5059011;28;20067;-53
2023/10/08 03:44:51;;;;;;;1.98;1.65;;;14.10;99.90;;;;;;5064722;28;20059;-56
2023/10/08 03:47:22;;;;;;;3.63;2.40;;;14.10;99.90;;;;;;5065815;28;20068;-56
2023/10/08 03:49:50;;;;;;;1.95;1.73;;;14.10;99.90;;;;;;5062965;28;20049;-57
2023/10/08 03:52:17;;;;;;;2.60;2.38;;;14.10;99.90;;;;;;5067542;28;20098;-55
2023/10/08 03:54:48;;;;;;;3.70;2.80;;;14.00;99.90;;;;;;5061954;28;20071;-54
2023/10/08 03:57:24;;;;;;;3.03;2.45;;;14.00;99.90;;;;;;5068090;28;20067;-57
2023/10/08 03:59:55;;;;;;;3.92;2.50;;;14.00;99.90;;;;;;5061698;28;20045;-56
2023/10/08 04:02:33;;;;;;;2.45;2.25;;;14.00;99.90;;;;;;5065076;28;20564;-54
2023/10/08 04:04:59;;;;;;;4.53;2.35;;;14.00;99.90;;;;;;5063841;28;20036;-57
2023/10/08 04:07:39;;;;;;;2.72;1.38;;;14.00;99.90;;;;;;5067728;28;20044;-57
2023/10/08 04:10:34;;;;;;;2.55;1.83;;;14.00;99.90;;;;;;5030063;28;20043;-55
2023/10/08 04:12:52;;;;;;;3.35;2.10;;;14.00;99.90;;;;;;5067602;28;20521;-56
2023/10/08 04:15:19;;;;;;;2.35;2.00;;;13.90;99.90;;;;;;5056498;28;20041;-57
2023/10/08 04:17:50;;;;;;;3.05;2.85;;;14.00;99.90;;;;;;5066008;28;20083;-55
2023/10/08 04:23:04;;;;;;;3.42;2.50;;;13.90;99.90;;;;;;5059647;28;20696;-56
2023/10/08 04:25:31;;;;;;;10.18;2.47;;;13.90;99.90;;;;;;5058467;28;20029;-56
2023/10/08 04:28:01;;;;;;;3.20;1.98;;;13.90;99.90;;;;;;5066051;28;20045;-54
2023/10/08 04:30:35;;;;;;;2.28;1.85;;;13.90;99.90;;;;;;5057185;28;20044;-56
2023/10/08 04:33:09;;;;;;;1.80;1.30;;;13.90;99.90;;;;;;5069216;28;20495;-57
2023/10/08 04:35:47;;;;;;;3.80;1.23;;;13.90;99.90;;;;;;5061614;28;20581;-55
2023/10/08 04:38:17;;;;;;;4.60;1.52;;;13.90;99.90;;;;;;5057351;28;20091;-54
2023/10/08 04:40:51;;;;;;;2.35;0.68;;;13.90;99.90;;;;;;5058538;28;20037;-57
2023/10/08 04:43:27;;;;;;;3.30;0.85;;;13.90;99.90;;;;;;5064611;28;20517;-58
2023/10/08 04:45:54;;;;;;;;;;;13.90;99.90;;;;;;5061351;28;20048;-56
2023/10/08 04:48:23;;;;;;;1.67;0.45;;;14.00;99.90;;;;;;5065672;28;20407;-57
2023/10/08 04:50:58;;;;;;;3.47;0.68;;;13.90;99.90;;;;;;5058061;28;20053;-57
2023/10/08 04:53:36;;;;;;;2.60;0.88;;;13.90;99.90;;;;;;5061699;28;20052;-56
2023/10/08 04:56:13;;;;;;;1.15;0.50;;;13.90;99.90;;;;;;5052934;28;20037;-54
2023/10/08 04:58:40;;;;;;;4.13;0.60;;;13.90;99.90;;;;;;5058796;28;20059;-55
2023/10/08 05:12:07;;;;;;;1.90;0.65;;;14.00;99.90;;;;;;5061903;28;20152;-57
2023/10/08 05:17:03;;;;;;;5.47;1.15;;;13.90;99.90;;;;;;5064152;28;20825;-56
2023/10/08 05:19:48;;;;;;;2.92;0.98;;;14.00;99.90;;;;;;5067519;28;20055;-55
2023/10/08 05:22:18;;;;;;;3.08;1.13;;;13.90;99.90;;;;;;5053543;28;20534;-58
2023/10/08 05:30:17;;;;;;;1.42;0.80;;;13.90;99.90;;;;;;5060260;28;20049;-58
2023/10/08 05:35:48;;;;;;;0.70;0.70;;;13.90;99.90;;;;;;5062493;28;20037;-52
2023/10/08 06:02:27;;;;;;;8.30;2.50;;;13.80;99.90;;;;;;5066314;28;20392;-54
2023/10/08 06:13:13;;;;;;;5.22;2.28;;;13.80;99.90;;;;;;5054647;28;20110;-57
2023/10/08 06:18:26;;;;;;;6.18;1.73;;;13.80;99.90;;;;;;5062011;28;20045;-56
2023/10/08 06:20:58;;;;;;;5.78;2.20;;;13.80;99.90;;;;;;5060753;28;20033;-57
2023/10/08 06:23:25;;;;;;;3.65;2.03;;;13.80;99.90;;;;;;5054546;28;20049;-56
2023/10/08 06:26:05;;;;;;;5.50;1.65;;;13.80;99.90;;;;;;5062059;28;20073;-57
2023/10/08 06:28:34;;;;;;;4.53;1.52;;;13.80;99.90;;;;;;5047947;28;20636;-57
2023/10/08 06:31:02;;;;;;;7.03;1.60;;;13.80;99.90;;;;;;5050687;28;20198;-56
2023/10/08 06:33:33;;;;;;;5.85;1.85;;;13.80;99.90;;;;;;5059950;28;20051;-57
2023/10/08 06:36:05;;;;;;;5.38;1.88;;;13.80;99.90;;;;;;5062890;28;20044;-56
2023/10/08 06:38:32;;;;;;;2.88;0.95;;;13.80;99.90;;;;;;5059732;28;20033;-56
2023/10/08 06:41:08;;;;;;;3.95;1.55;;;13.80;99.90;;;;;;5059043;28;20033;-57
2023/10/08 06:43:37;;;;;;;3.95;1.48;;;13.80;99.90;;;;;;5060180;28;20124;-56
2023/10/08 06:46:07;;;;;;;6.07;1.70;;;13.90;99.90;;;;;;5062685;28;20090;-53
2023/10/08 06:48:34;;;;;;;4.80;1.73;;;13.90;99.90;;;;;;5062889;28;20068;-55
2023/10/08 06:51:07;;;;;;;3.97;1.73;;;13.90;99.90;;;;;;5070206;28;20037;-56
2023/10/08 06:53:33;;;;;;;5.97;1.52;;;13.90;99.90;;;;;;5053709;28;20037;-57
2023/10/08 06:56:04;;;;;;;7.43;1.38;;;13.90;99.90;;;;;;5069916;28;20039;-56
2023/10/08 06:58:32;;;;;;;2.85;1.02;;;14.00;99.90;;;;;;5067515;28;20029;-57
2023/10/08 07:00:58;;;;;;;4.82;1.25;;;14.00;99.90;;;;;;5067326;28;20453;-57
2023/10/08 07:03:24;;;;;;;2.75;1.00;;;14.00;99.90;;;;;;5066809;28;20105;-54
2023/10/08 07:05:57;;;;;;;3.60;1.27;;;14.00;99.90;;;;;;5066722;28;20093;-57
2023/10/08 07:08:31;;;;;;;3.90;0.70;;;14.10;99.90;;;;;;5066346;28;20036;-58
2023/10/08 07:11:01;;;;;;;3.90;1.33;;;14.10;99.90;;;;;;5066657;28;20190;-56
2023/10/08 07:13:29;;;;;;;5.25;1.25;;;14.00;99.90;;;;;;5066954;28;20702;-56
2023/10/08 07:15:56;;;;;;;4.43;1.38;;;14.00;99.90;;;;;;5074866;28;20041;-53
2023/10/08 07:18:25;;;;;;;5.45;0.80;;;14.00;99.90;;;;;;5070277;28;20062;-56
2023/10/08 07:20:55;;;;;;;4.40;0.63;;;14.00;99.90;;;;;;5052984;28;20048;-55
2023/10/08 07:23:25;;;;;;;4.97;0.60;;;13.90;99.90;;;;;;5055294;28;20045;-55
2023/10/08 07:26:10;;;;;;;5.15;0.70;;;13.90;99.90;;;;;;5056058;28;20051;-54
2023/10/08 07:28:40;;;;;;;2.30;0.60;;;13.90;99.90;;;;;;5052566;28;20036;-54
2023/10/08 07:31:16;;;;;;;5.97;0.80;;;13.90;99.90;;;;;;5052552;28;20045;-55
2023/10/08 07:33:47;;;;;;;7.50;0.77;;;13.80;99.90;;;;;;5053659;28;20041;-57
2023/10/08 07:36:14;;;;;;;6.07;0.60;;;13.90;99.90;;;;;;5056036;28;20037;-57
2023/10/08 07:38:43;;;;;;;6.43;1.00;;;13.90;99.90;;;;;;5056896;28;20047;-58
2023/10/08 07:41:14;;;;;;;2.22;0.60;;;13.90;99.90;;;;;;5047162;28;20112;-58
2023/10/08 07:43:42;;;;;;;6.13;0.65;;;14.00;99.90;;;;;;5057276;28;20040;-57
2023/10/08 07:46:08;;;;;;;8.50;1.23;;;14.00;99.90;;;;;;5048791;28;20037;-58
2023/10/08 07:48:33;;;;;;;4.32;0.82;;;14.10;99.90;;;;;;5045383;28;20040;-56
2023/10/08 07:50:59;;;;;;;5.10;0.93;;;14.10;99.90;;;;;;5045855;28;20318;-58
2023/10/08 07:53:25;;;;;;;6.55;0.63;;;14.20;99.90;;;;;;5049070;28;20242;-57
2023/10/08 07:55:51;;;;;;;5.40;0.55;;;14.30;99.90;;;;;;5053831;28;20701;-55
2023/10/08 07:58:18;;;;;;;10.88;0.82;;;14.30;99.90;;;;;;5053960;28;20032;-58
2023/10/08 08:00:54;;;;;;;3.72;0.60;;;14.40;99.90;;;;;;5059397;28;20123;-56
2023/10/08 08:03:20;;;;;;;5.95;0.80;;;14.40;99.90;;;;;;5059729;28;20248;-58
2023/10/08 08:05:47;;;;;;;7.78;0.70;;;14.50;99.90;;;;;;5060150;28;20058;-58
2023/10/08 08:08:17;;;;;;;5.65;1.08;;;14.50;99.90;;;;;;5065926;28;20056;-57
2023/10/08 08:10:44;;;;;;;3.45;0.60;;;14.50;99.90;;;;;;5069290;28;20043;-58
2023/10/08 08:13:10;;;;;;;6.78;0.55;;;14.60;99.90;;;;;;5054216;28;20400;-57
2023/10/08 08:15:41;;;;;;;6.20;0.77;;;14.60;99.90;;;;;;5053293;28;20044;-56
2023/10/08 08:18:07;;;;;;;8.93;0.70;;;14.70;99.90;;;;;;5053587;28;20044;-58
2023/10/08 08:20:38;;;;;;;5.78;0.40;;;14.70;99.90;;;;;;5057455;28;20035;-58
2023/10/08 08:23:08;;;;;;;3.47;0.60;;;14.70;99.90;;;;;;5061525;28;20055;-58
2023/10/08 08:28:44;;;;;;;6.43;0.85;;;14.80;99.90;;;;;;5003998;28;20045;-58
2023/10/08 08:31:14;;;;;;;7.50;1.33;;;14.80;99.90;;;;;;5003753;28;20077;-57
2023/10/08 08:33:52;;;;;;;7.82;0.85;;;14.90;99.90;;;;;;5010246;28;20049;-57
2023/10/08 08:36:22;;;;;;;5.82;0.90;;;14.90;99.90;;;;;;5006788;28;20061;-58
2023/10/08 08:38:48;;;;;;;5.80;0.80;;;14.90;99.90;;;;;;4989555;28;20052;-57
2023/10/08 08:41:17;;;;;;;;;;;14.90;99.90;;;;;;5007189;28;20045;-58
2023/10/08 08:43:47;;;;;;;4.30;1.17;;;14.90;99.90;;;;;;5002458;28;19966;-56
2023/10/08 08:46:13;;;;;;;12.02;1.02;;;14.90;99.90;;;;;;5006575;28;20527;-57
2023/10/08 08:48:41;;;;;;;4.07;0.80;;;14.90;99.90;;;;;;5001518;28;20045;-58
2023/10/08 08:51:07;;;;;;;6.60;0.75;;;15.00;99.90;;;;;;5006274;28;20070;-58
2023/10/08 08:53:34;;;;;;;7.18;0.77;;;15.00;99.90;;;;;;5002372;28;20078;-58
2023/10/08 08:56:04;;;;;;;2.78;0.63;;;14.90;99.90;;;;;;5002398;28;20065;-58
2023/10/08 08:58:33;;;;;;;6.47;1.10;;;15.00;99.90;;;;;;5004806;28;20401;-58
2023/10/08 09:01:00;;;;;;;6.13;0.80;;;15.00;99.90;;;;;;5006743;28;20665;-57
2023/10/08 09:03:30;;;;;;;3.63;0.70;;;15.10;99.90;;;;;;5053670;28;20049;-58
2023/10/08 09:05:57;;;;;;;6.53;0.88;;;15.10;99.90;;;;;;5058106;28;20037;-57
2023/10/08 09:08:27;;;;;;;9.85;0.88;;;15.20;99.90;;;;;;5069798;28;20037;-57
2023/10/08 09:11:00;;;;;;;9.02;0.65;;;15.20;99.90;;;;;;5068142;28;20430;-58
2023/10/08 09:13:27;;;;;;;4.78;0.65;;;15.30;99.90;;;;;;5074416;28;20142;-58
2023/10/08 09:16:14;;;;;;;4.20;0.63;;;15.30;99.90;;;;;;5072265;28;20040;-58
2023/10/08 09:18:45;;;;;;;3.05;0.45;;;15.40;99.90;;;;;;5061485;28;20109;-59
2023/10/08 09:21:13;;;;;;;7.72;0.70;;;15.50;99.90;;;;;;5048867;28;20033;-58
2023/10/08 09:23:43;;;;;;;6.68;1.45;;;15.40;99.90;;;;;;5049518;28;20572;-59
2023/10/08 09:26:10;;;;;;;5.47;0.73;;;15.50;99.90;;;;;;5049097;28;20626;-58
2023/10/08 09:28:38;;;;;;;5.63;0.50;;;15.60;99.90;;;;;;5050490;28;20033;-59
2023/10/08 09:31:06;;;;;;;5.10;0.40;;;15.70;99.90;;;;;;5051085;28;20086;-58
2023/10/08 09:33:32;;;;;;;2.83;0.40;;;15.70;99.90;;;;;;5048826;28;20040;-58
2023/10/08 09:36:06;;;;;;;;;;;15.80;99.90;;;;;;5049522;28;20033;-59
2023/10/08 09:38:33;;;;;;;6.55;0.47;;;15.80;99.90;;;;;;5048231;28;19917;-57
2023/10/08 09:41:02;;;;;;;8.27;1.00;;;15.90;99.90;;;;;;5050882;28;20032;-58
2023/10/08 09:43:29;;;;;;;7.80;0.60;;;15.90;99.90;;;;;;5054143;28;20040;-57
2023/10/08 09:46:14;;;;;;;;;;;15.90;99.90;;;;;;5036148;28;20048;-56
2023/10/08 09:48:43;;;;;;;6.28;0.40;;;16.00;99.90;;;;;;5055551;28;20408;-58
2023/10/08 09:51:12;;;;;;;4.85;0.57;;;16.00;99.90;;;;;;5053486;28;20052;-58
2023/10/08 09:53:58;;;;;;;5.63;0.75;;;15.90;99.90;;;;;;5053305;28;20045;-58
2023/10/08 09:56:27;;;;;;;4.93;0.80;;;15.80;99.90;;;;;;5053934;28;20044;-57
2023/10/08 09:58:53;;;;;;;7.60;0.73;;;15.80;99.90;;;;;;5058705;28;20044;-60
2023/10/08 10:01:20;;;;;;;8.90;0.63;;;15.80;99.90;;;;;;5051260;28;20029;-60
2023/10/08 10:03:46;;;;;;;5.70;1.00;;;15.90;99.90;;;;;;5051626;28;20036;-60
2023/10/08 10:06:14;;;;;;;5.45;0.63;;;16.00;99.90;;;;;;5054391;28;20119;-60
2023/10/08 10:08:44;;;;;;;8.73;0.60;;;16.20;99.90;;;;;;5049732;28;20575;-59
2023/10/08 10:11:10;;;;;;;3.70;0.50;;;16.30;99.90;;;;;;5049244;28;20041;-60
2023/10/08 10:13:39;;;;;;;;;;;16.50;99.90;;;;;;5043460;28;20045;-60
2023/10/08 10:16:07;;;;;;;5.00;0.65;;;16.70;99.90;;;;;;5042816;28;19936;-56
2023/10/08 10:18:33;;;;;;;5.25;0.80;;;16.80;99.90;;;;;;5047464;28;20037;-58
2023/10/08 10:21:02;;;;;;;;;;;17.00;99.90;;;;;;5049785;28;20035;-57
2023/10/08 10:23:40;;;;;;;5.25;0.93;;;17.10;99.90;;;;;;5051360;28;19917;-57
2023/10/08 10:26:33;;;;;;;8.23;0.55;;;17.20;99.90;;;;;;5052420;28;20047;-56
2023/10/08 10:29:14;;;;;;;9.95;1.35;;;17.40;99.90;;;;;;5051960;28;20120;-56
2023/10/08 10:31:53;;;;;;;7.90;0.90;;;17.50;99.90;;;;;;5053630;28;20036;-57
2023/10/08 10:34:30;;;;;;;8.52;0.80;;;17.60;99.90;;;;;;5052189;28;20037;-59
2023/10/08 10:36:58;;;;;;;;;;;17.60;99.90;;;;;;5055685;28;20555;-58
2023/10/08 10:39:33;;;;;;;7.18;1.02;;;17.50;99.90;;;;;;5056769;28;19916;-57
2023/10/08 10:42:05;;;;;;;6.93;0.65;;;17.60;99.90;;;;;;5057312;28;20048;-58
2023/10/08 10:44:33;;;;;;;4.65;0.98;;;17.60;99.90;;;;;;5051499;28;20033;-58
2023/10/08 10:47:46;;;;;;;6.25;0.52;;;17.60;99.90;;;;;;5052917;28;20049;-59
2023/10/08 10:49:54;;;;;;;5.50;0.70;;;17.50;99.90;;;;;;5034783;28;20305;-57
2023/10/08 10:57:43;;;;;;;7.97;0.60;;;17.40;99.90;;;;;;5047481;28;20033;-58
2023/10/08 11:02:59;;;;;;;4.18;0.60;;;17.40;99.90;;;;;;5047584;28;20044;-58
2023/10/08 11:05:28;;;;;;;5.07;0.90;;;17.50;99.90;;;;;;5048124;28;20052;-58
2023/10/08 11:08:04;;;;;;;9.13;0.93;;;17.50;99.90;;;;;;5048034;28;20411;-56
2023/10/08 11:10:38;;;;;;;5.90;0.43;;;17.60;99.90;;;;;;5048866;28;20037;-58
2023/10/08 11:13:14;;;;;;;6.30;1.42;;;17.60;99.90;;;;;;5050219;28;20350;-56
2023/10/08 11:15:40;;;;;;;11.25;1.15;;;17.70;99.90;;;;;;5046313;28;20442;-58
2023/10/08 11:18:15;;;;;;;10.45;1.45;;;17.70;99.90;;;;;;5046325;28;20502;-57
2023/10/08 11:20:44;;;;;;;11.32;0.85;;;17.70;99.90;;;;;;5043153;28;20304;-56
2023/10/08 11:23:19;;;;;;;5.40;0.35;;;17.70;99.90;;;;;;5049401;28;20044;-59
2023/10/08 11:26:02;;;;;;;5.20;0.43;;;17.70;99.90;;;;;;5046842;28;20328;-58
2023/10/08 11:28:28;;;;;;;6.18;0.77;;;17.60;99.90;;;;;;5048269;28;20037;-56
2023/10/08 11:30:57;;;;;;;4.50;0.80;;;17.50;99.90;;;;;;5053139;28;20044;-59
2023/10/08 11:33:22;;;;;;;8.43;0.70;;;17.50;99.90;;;;;;5044360;28;20246;-59
2023/10/08 11:36:01;;;;;;;9.85;0.88;;;17.40;99.90;;;;;;5047135;28;20033;-58
2023/10/08 11:38:27;;;;;;;6.90;0.80;;;17.40;99.90;;;;;;5049840;28;20029;-59
2023/10/08 11:40:56;;;;;;;4.75;0.32;;;17.50;99.90;;;;;;5051284;28;20446;-58
2023/10/08 11:43:25;;;;;;;7.93;0.73;;;17.50;99.90;;;;;;5050451;28;20507;-57
2023/10/08 11:45:52;;;;;;;8.02;0.98;;;17.60;99.90;;;;;;5047333;28;20052;-55
2023/10/08 11:48:28;;;;;;;8.88;0.70;;;17.60;99.90;;;;;;5044565;28;20407;-56
2023/10/08 11:50:57;;;;;;;6.65;0.75;;;17.60;99.90;;;;;;5049357;28;20049;-57
2023/10/08 11:53:24;;;;;;;6.07;1.10;;;17.70;99.90;;;;;;5052463;28;20500;-55
2023/10/08 11:55:54;;;;;;;4.85;0.88;;;17.70;99.90;;;;;;5051888;28;20045;-56
2023/10/08 11:58:21;;;;;;;6.15;0.70;;;17.70;99.90;;;;;;5050083;28;20045;-56
2023/10/08 12:00:52;;;;;;;14.88;0.65;;;17.70;99.90;;;;;;5048526;28;20049;-56
2023/10/08 12:03:18;;;;;;;6.07;0.60;;;17.70;99.90;;;;;;5052733;28;20037;-54
2023/10/08 12:05:48;;;;;;;7.10;0.50;;;17.80;99.90;;;;;;5034612;28;20052;-54
2023/10/08 12:08:20;;;;;;;11.02;0.82;;;17.90;99.90;;;;;;5053302;28;20503;-56
2023/10/08 12:10:47;;;;;;;5.10;0.40;;;18.00;99.90;;;;;;5047276;28;20047;-55
2023/10/08 12:13:16;;;;;;;6.95;0.88;;;17.90;99.90;;;;;;5052514;28;20091;-56
2023/10/08 12:15:44;;;;;;;7.82;1.20;;;17.90;99.90;;;;;;5043706;28;20049;-54
2023/10/08 12:18:24;;;;;;;4.10;0.50;;;17.80;99.90;;;;;;5049278;28;20412;-57
2023/10/08 12:20:50;;;;;;;7.80;0.68;;;17.70;99.90;;;;;;5046014;28;20036;-57
2023/10/08 12:23:25;;;;;;;6.80;1.80;;;17.70;99.90;;;;;;5047594;28;20419;-55
2023/10/08 12:26:01;;;;;;;5.35;0.85;;;17.70;99.90;;;;;;5043377;28;20044;-56
2023/10/08 12:28:28;;;;;;;16.45;2.42;;;17.70;99.90;;;;;;5041475;28;20511;-56
2023/10/08 12:30:55;;;;;;;20.63;2.78;;;17.80;99.90;;;;;;5047550;28;20062;-59
2023/10/08 12:33:24;;;;;;;3.58;0.40;;;17.80;99.90;;;;;;5055531;28;20052;-58
2023/10/08 12:35:55;;;;;;;5.03;0.40;;;17.90;99.90;;;;;;5052078;28;20075;-60
2023/10/08 12:38:27;;;;;;;4.38;0.75;;;17.80;99.90;;;;;;5052963;28;20040;-58
2023/10/08 12:40:54;;;;;;;5.00;0.70;;;17.80;99.90;;;;;;5057448;28;20373;-56
2023/10/08 12:43:21;;;;;;;9.57;0.77;;;17.80;99.90;;;;;;5055943;28;20040;-59
2023/10/08 12:45:52;;;;;;;2.72;0.50;;;17.80;99.90;;;;;;5052578;28;20040;-58
2023/10/08 12:48:20;;;;;;;3.55;0.52;;;17.80;99.90;;;;;;5047381;28;20043;-57
2023/10/08 12:50:52;;;;;;;8.85;0.70;;;17.80;99.90;;;;;;5044406;28;20048;-58
2023/10/08 12:53:26;;;;;;;3.10;0.50;;;17.80;99.90;;;;;;5048560;28;20071;-58
2023/10/08 12:55:53;;;;;;;5.13;0.50;;;17.80;99.90;;;;;;5060496;28;20041;-56
2023/10/08 12:58:29;;;;;;;3.63;0.60;;;17.90;99.90;;;;;;5069171;28;20514;-59
2023/10/08 13:01:03;;;;;;;6.07;0.82;;;17.80;99.90;;;;;;5067738;28;20621;-58
2023/10/08 13:03:31;;;;;;;7.13;0.60;;;17.80;99.90;;;;;;5071045;28;20340;-59
2023/10/08 13:06:03;;;;;;;5.45;0.93;;;17.70;99.90;;;;;;5066574;28;20045;-59
2023/10/08 13:08:35;;;;;;;9.98;0.85;;;17.80;99.90;;;;;;5070123;28;20037;-59
2023/10/08 13:11:04;;;;;;;2.88;0.45;;;17.90;99.90;;;;;;5066924;28;20041;-59
2023/10/08 13:13:31;;;;;;;3.92;0.73;;;17.90;99.90;;;;;;5068288;28;20478;-59
2023/10/08 13:16:00;;;;;;;9.40;1.23;;;18.00;99.90;;;;;;5060893;28;20044;-59
2023/10/08 13:18:25;;;;;;;2.60;0.40;;;18.00;99.90;;;;;;5068729;28;20656;-60
2023/10/08 13:20:52;;;;;;;5.90;0.40;;;18.00;99.90;;;;;;5067605;28;20041;-59
2023/10/08 13:23:23;;;;;;;6.30;0.60;;;18.00;99.90;;;;;;5069106;28;20410;-59
2023/10/08 13:25:53;;;;;;;4.05;0.50;;;18.10;99.90;;;;;;5062452;28;20032;-59
2023/10/08 13:28:23;;;;;;;5.47;0.90;;;18.10;99.90;;;;;;5065546;28;20049;-59
2023/10/08 13:30:52;;;;;;;1.85;0.40;;;18.20;99.90;;;;;;5059928;28;20558;-59
2023/10/08 13:33:24;;;;;;;4.13;0.30;;;18.10;99.90;;;;;;5065233;28;20083;-59
2023/10/08 13:35:51;;;;;;;5.43;0.30;;;18.00;99.90;;;;;;5063780;28;20498;-58
2023/10/08 13:38:20;;;;;;;7.38;0.50;;;17.90;99.90;;;;;;5064739;28;20418;-58
2023/10/08 13:41:01;;;;;;;4.82;0.50;;;17.80;99.90;;;;;;5068409;28;20447;-58
2023/10/08 13:43:33;;;;;;;3.45;0.60;;;17.70;99.90;;;;;;5066009;28;20036;-58
2023/10/08 13:46:09;;;;;;;4.97;0.32;;;17.60;99.90;;;;;;5065228;28;20036;-59
2023/10/08 13:48:35;;;;;;;5.45;0.60;;;17.60;99.90;;;;;;5070585;28;20040;-59
2023/10/08 13:51:03;;;;;;;5.93;0.68;;;17.50;99.90;;;;;;5071390;28;20041;-57
2023/10/08 13:53:33;;;;;;;3.58;0.30;;;17.50;99.90;;;;;;5068443;28;20040;-59
2023/10/08 13:56:04;;;;;;;1.40;0.40;;;17.40;99.90;;;;;;5069058;28;20040;-59
2023/10/08 13:58:30;;;;;;;5.28;0.50;;;17.40;99.90;;;;;;5070149;28;20090;-58
2023/10/08 14:00:59;;;;;;;5.63;0.70;;;17.30;99.90;;;;;;5069165;28;20037;-59
2023/10/08 14:03:25;;;;;;;3.75;0.95;;;17.30;99.90;;;;;;5069089;28;20056;-57
2023/10/08 14:05:51;;;;;;;5.95;0.52;;;17.20;99.90;;;;;;5071991;28;20044;-57
2023/10/08 14:08:18;;;;;;;8.13;0.60;;;17.10;99.90;;;;;;5069521;28;20045;-57
2023/10/08 14:10:45;;;;;;;11.30;1.17;;;17.10;99.90;;;;;;5070452;28;20040;-58
2023/10/08 14:13:11;;;;;;;2.25;0.60;;;17.00;99.90;;;;;;5065135;28;20068;-57
2023/10/08 14:15:46;;;;;;;4.70;0.90;;;17.00;99.90;;;;;;5065965;28;20529;-58
2023/10/08 14:18:16;;;;;;;5.22;0.68;;;17.10;99.90;;;;;;5064179;28;20407;-58
2023/10/08 14:20:43;;;;;;;7.32;0.90;;;17.10;99.90;;;;;;5069663;28;20087;-56